createdAt,value
2019-05-07T00:00:48.749Z,10.77
2019-05-07T00:04:47.511Z,11.53
2019-05-07T00:08:45.962Z,11.83
2019-05-07T00:12:44.421Z,11.43
2019-05-07T00:16:42.921Z,11.10
2019-05-07T00:20:42.434Z,11.13
2019-05-07T00:24:44.487Z,12.40
2019-05-07T00:28:44.615Z,12.10
2019-05-07T00:32:46.374Z,12.37
2019-05-07T00:36:49.423Z,11.10
2019-05-07T00:40:51.939Z,11.47
2019-05-07T00:45:16.965Z,12.77
2019-05-07T00:49:04.919Z,12.40
2019-05-07T00:53:03.461Z,12.67
2019-05-07T00:57:05.369Z,12.80
2019-05-07T01:01:04.319Z,12.23
2019-05-07T01:05:03.140Z,12.73
2019-05-07T01:09:03.178Z,11.70
2019-05-07T01:13:08.346Z,12.63
2019-05-07T01:17:10.010Z,12.70
2019-05-07T01:21:13.240Z,12.57
2019-05-07T01:25:14.108Z,12.53
2019-05-07T01:29:24.681Z,13.67
2019-05-07T01:33:33.193Z,12.60
2019-05-07T01:37:32.398Z,13.20
2019-05-07T01:41:35.101Z,13.97
2019-05-07T01:45:45.366Z,14.43
2019-05-07T01:49:36.135Z,13.60
2019-05-07T01:53:34.667Z,13.97
2019-05-07T01:57:42.130Z,13.70
2019-05-07T02:01:57.332Z,15.03
2019-05-07T02:05:59.200Z,14.47
2019-05-07T02:10:05.373Z,14.87
2019-05-07T02:14:04.201Z,15.60
2019-05-07T02:18:09.491Z,15.57
2019-05-07T02:22:14.712Z,14.77
2019-05-07T02:26:18.407Z,15.20
2019-05-07T02:30:24.244Z,16.90
2019-05-07T02:34:25.033Z,16.70
2019-05-07T02:38:34.615Z,15.73
2019-05-07T02:42:38.395Z,15.47
2019-05-07T02:46:52.835Z,15.83
2019-05-07T02:50:56.286Z,16.80
2019-05-07T02:54:56.446Z,17.07
2019-05-07T02:58:55.519Z,15.97
2019-05-07T03:02:54.003Z,18.17
2019-05-07T03:06:54.344Z,17.93
2019-05-07T03:10:56.818Z,16.37
2019-05-07T03:14:58.478Z,17.17
2019-05-07T03:19:05.432Z,17.30
2019-05-07T03:23:07.853Z,17.37
2019-05-07T03:27:13.770Z,16.97
2019-05-07T03:31:25.530Z,17.47
2019-05-07T03:35:36.335Z,17.33
2019-05-07T03:39:35.319Z,17.77
2019-05-07T03:43:44.175Z,17.03
2019-05-07T03:47:44.370Z,17.10
2019-05-07T03:51:44.223Z,16.70
2019-05-07T03:55:49.385Z,18.23
2019-05-07T03:59:53.244Z,17.97
2019-05-07T04:03:53.271Z,17.90
2019-05-07T04:07:54.032Z,18.13
2019-05-07T04:11:58.514Z,16.83
2019-05-07T04:15:57.024Z,16.87
2019-05-07T04:19:55.757Z,17.93
2019-05-07T04:24:18.195Z,17.40
2019-05-07T04:28:23.587Z,17.33
2019-05-07T04:32:33.409Z,17.50
2019-05-07T04:36:36.143Z,16.97
2019-05-07T04:40:34.249Z,16.50
2019-05-07T04:44:46.068Z,17.27
2019-05-07T04:48:43.534Z,16.90
2019-05-07T04:52:43.706Z,18.00
2019-05-07T04:56:52.842Z,17.03
2019-05-07T05:00:47.364Z,16.90
2019-05-07T05:04:47.981Z,18.57
2019-05-07T05:08:53.243Z,18.80
2019-05-07T05:12:53.367Z,17.57
2019-05-07T05:16:52.441Z,18.30
2019-05-07T05:21:04.415Z,18.67
2019-05-07T05:25:23.243Z,18.40
2019-05-07T05:29:24.240Z,19.10
2019-05-07T05:33:28.096Z,18.60
2019-05-07T05:41:57.557Z,18.43
2019-05-07T05:46:02.709Z,17.57
2019-05-07T05:50:02.815Z,17.97
2019-05-07T05:54:05.228Z,18.20
2019-05-07T05:58:12.187Z,17.63
2019-05-07T06:02:32.213Z,18.47
2019-05-07T06:06:21.936Z,18.40
2019-05-07T06:10:25.172Z,18.30
2019-05-07T06:14:42.524Z,16.47
2019-05-07T06:18:47.861Z,17.33
2019-05-07T06:22:52.882Z,17.73
2019-05-07T06:26:52.221Z,16.30
2019-05-07T06:30:54.022Z,18.10
2019-05-07T06:34:53.295Z,16.57
2019-05-07T06:39:05.324Z,16.37
2019-05-07T06:43:15.134Z,15.77
2019-05-07T06:47:16.099Z,16.53
2019-05-07T06:51:22.098Z,15.90
2019-05-07T06:55:22.861Z,15.57
2019-05-07T06:59:22.770Z,16.20
2019-05-07T07:03:32.806Z,15.73
2019-05-07T07:07:42.643Z,13.43
2019-05-07T07:11:52.918Z,15.53
2019-05-07T07:15:55.958Z,14.20
2019-05-07T07:19:58.725Z,14.50
2019-05-07T07:23:54.789Z,12.37
2019-05-07T07:27:57.015Z,10.83
2019-05-07T07:32:03.308Z,9.37
2019-05-07T07:36:02.489Z,9.43
2019-05-07T07:40:14.903Z,8.67
2019-05-07T07:44:13.519Z,11.57
2019-05-07T07:48:24.521Z,12.10
2019-05-07T07:52:23.262Z,12.20
2019-05-07T07:56:28.917Z,13.07
2019-05-07T08:00:47.047Z,12.60
2019-05-07T08:04:47.415Z,12.70
2019-05-07T08:08:48.724Z,13.70
2019-05-07T08:12:52.548Z,13.27
2019-05-07T08:16:55.668Z,13.60
2019-05-07T08:20:54.217Z,12.20
2019-05-07T08:25:01.403Z,11.50
2019-05-07T08:28:59.219Z,9.73
2019-05-07T08:33:09.803Z,9.27
2019-05-07T08:37:19.105Z,8.57
2019-05-07T08:41:14.892Z,9.57
2019-05-07T08:45:34.326Z,10.93
2019-05-07T08:49:39.581Z,11.40
2019-05-07T08:53:39.839Z,10.80
2019-05-07T08:57:48.025Z,10.90
2019-05-07T09:01:52.014Z,9.27
2019-05-07T09:05:47.698Z,9.07
2019-05-07T09:09:49.366Z,9.77
2019-05-07T09:13:52.439Z,8.13
2019-05-07T09:17:57.004Z,8.87
2019-05-07T09:21:52.792Z,8.93
2019-05-07T09:25:52.250Z,7.83
2019-05-07T09:29:55.252Z,7.70
2019-05-07T09:33:55.636Z,7.77
2019-05-07T09:37:59.219Z,6.90
2019-05-07T09:42:06.529Z,6.93
2019-05-07T09:46:08.664Z,7.03
2019-05-07T09:50:13.036Z,7.20
2019-05-07T09:54:19.029Z,7.90
2019-05-07T09:58:35.758Z,7.37
2019-05-07T10:02:25.786Z,7.40
2019-05-07T10:06:27.617Z,8.23
2019-05-07T10:10:33.040Z,7.37
2019-05-07T10:14:34.872Z,7.53
2019-05-07T10:18:33.411Z,7.93
2019-05-07T10:22:37.365Z,8.00
2019-05-07T10:26:36.034Z,8.90
2019-05-07T10:30:35.467Z,8.57
2019-05-07T10:34:36.405Z,9.70
2019-05-07T10:38:41.641Z,8.67
2019-05-07T10:42:43.039Z,8.70
2019-05-07T10:47:01.863Z,8.73
2019-05-07T10:51:07.549Z,9.30
2019-05-07T10:55:13.187Z,7.53
2019-05-07T10:59:17.515Z,9.43
2019-05-07T11:03:16.108Z,8.10
2019-05-07T11:07:19.215Z,9.13
2019-05-07T11:11:51.786Z,9.40
2019-05-07T11:15:59.607Z,10.60
2019-05-07T11:19:55.322Z,10.40
2019-05-07T11:23:55.071Z,10.10
2019-05-07T11:27:54.005Z,11.77
2019-05-07T11:31:55.956Z,12.37
2019-05-07T11:35:55.072Z,11.60
2019-05-07T11:39:55.901Z,11.70
2019-05-07T11:44:04.471Z,12.70
2019-05-07T11:48:13.141Z,11.97
2019-05-07T11:52:17.262Z,12.90
2019-05-07T11:56:16.786Z,11.40
2019-05-07T12:00:23.663Z,12.73
2019-05-07T12:04:22.192Z,11.87
2019-05-07T12:08:39.348Z,11.30
2019-05-07T12:12:32.464Z,10.50
2019-05-07T12:16:32.475Z,10.73
2019-05-07T12:20:35.074Z,11.77
2019-05-07T12:24:36.990Z,10.23
2019-05-07T12:28:38.485Z,10.47
2019-05-07T12:32:42.622Z,10.10
2019-05-07T12:36:42.790Z,9.60
2019-05-07T12:40:41.911Z,9.53
2019-05-07T12:44:44.448Z,9.90
2019-05-07T12:48:45.191Z,9.53
2019-05-07T12:53:02.205Z,9.37
2019-05-07T12:57:02.520Z,6.73
2019-05-07T13:01:09.289Z,7.80
2019-05-07T13:05:12.179Z,7.30
2019-05-07T13:09:14.165Z,7.20
2019-05-07T13:13:12.717Z,8.00
2019-05-07T13:17:12.063Z,8.13
2019-05-07T13:21:16.250Z,7.73
2019-05-07T13:25:15.171Z,8.93
2019-05-07T13:29:13.951Z,10.50
2019-05-07T13:33:24.093Z,9.90
2019-05-07T13:37:24.325Z,9.57
2019-05-07T13:41:36.580Z,8.93
2019-05-07T13:45:44.510Z,7.97
2019-05-07T13:49:45.197Z,7.27
2019-05-07T13:53:57.102Z,7.50
2019-05-07T13:57:58.319Z,7.07
2019-05-07T14:01:59.914Z,7.57
2019-05-07T14:06:08.384Z,7.80
2019-05-07T14:10:12.423Z,7.70
2019-05-07T14:14:13.274Z,9.27
2019-05-07T14:18:24.100Z,10.80
2019-05-07T14:22:23.709Z,11.03
2019-05-07T14:26:23.887Z,11.00
2019-05-07T14:30:32.729Z,11.47
2019-05-07T14:34:36.035Z,10.67
2019-05-07T14:38:42.625Z,11.10
2019-05-07T14:42:44.821Z,10.60
2019-05-07T14:46:50.564Z,9.80
2019-05-07T14:50:53.595Z,10.17
2019-05-07T14:54:51.710Z,9.27
2019-05-07T14:58:51.671Z,10.03
2019-05-07T15:02:54.888Z,10.90
2019-05-07T15:06:58.773Z,9.47
2019-05-07T15:10:57.876Z,8.70
2019-05-07T15:15:04.450Z,9.30
2019-05-07T15:19:15.988Z,9.03
2019-05-07T15:23:19.494Z,9.90
2019-05-07T15:27:18.085Z,9.20
2019-05-07T15:31:18.329Z,9.57
2019-05-07T15:35:16.798Z,10.23
2019-05-07T15:39:19.661Z,10.07
2019-05-07T15:43:24.791Z,10.23
2019-05-07T15:47:26.488Z,9.20
2019-05-07T15:51:25.076Z,7.80
2019-05-07T15:55:23.620Z,8.17
2019-05-07T15:59:24.298Z,8.73
2019-05-07T16:03:42.676Z,8.67
2019-05-07T16:07:44.057Z,8.53
2019-05-07T16:11:49.261Z,8.57
2019-05-07T16:16:02.210Z,8.63
2019-05-07T16:20:07.518Z,9.53
2019-05-07T16:24:22.947Z,9.60
2019-05-07T16:28:28.675Z,9.23
2019-05-07T16:32:32.651Z,8.47
2019-05-07T16:36:42.805Z,9.93
2019-05-07T16:40:44.559Z,7.80
2019-05-07T16:44:43.078Z,7.67
2019-05-07T16:48:43.852Z,7.70
2019-05-07T16:52:46.798Z,6.07
2019-05-07T16:57:04.070Z,7.13
2019-05-07T17:01:08.886Z,7.33
2019-05-07T17:05:12.377Z,6.63
2019-05-07T17:09:14.929Z,6.93
2019-05-07T17:13:15.470Z,7.07
2019-05-07T17:17:15.728Z,6.90
2019-05-07T17:21:14.472Z,6.70
2019-05-07T17:25:33.403Z,7.23
2019-05-07T17:29:38.744Z,6.77
2019-05-07T17:33:38.791Z,7.40
2019-05-07T17:41:51.865Z,7.30
2019-05-07T17:45:57.579Z,6.63
2019-05-07T17:50:04.357Z,7.60
2019-05-07T17:54:07.981Z,7.50
2019-05-07T17:58:06.737Z,8.87
2019-05-07T18:02:12.124Z,7.60
2019-05-07T18:06:12.377Z,7.40
2019-05-07T18:10:12.672Z,7.13
2019-05-07T18:14:18.302Z,6.80
2019-05-07T18:18:17.009Z,6.70
2019-05-07T18:22:16.222Z,6.70
2019-05-07T18:26:30.330Z,6.57
2019-05-07T18:30:24.233Z,6.33
2019-05-07T18:34:26.319Z,6.33
2019-05-07T18:38:22.987Z,6.80
2019-05-07T18:42:24.399Z,6.20
2019-05-07T18:46:24.916Z,6.60
2019-05-07T18:50:28.501Z,6.13
2019-05-07T18:54:33.178Z,6.83
2019-05-07T18:58:39.780Z,6.70
2019-05-07T19:02:38.686Z,6.23
2019-05-07T19:06:39.206Z,6.63
2019-05-07T19:10:42.898Z,7.00
2019-05-07T19:14:59.938Z,8.57
2019-05-07T19:19:00.456Z,9.67
2019-05-07T19:23:02.651Z,11.87
2019-05-07T19:27:02.844Z,15.13
2019-05-07T19:31:01.443Z,14.70
2019-05-07T19:35:01.590Z,11.00
2019-05-07T19:39:02.049Z,9.13
2019-05-07T19:43:02.824Z,8.70
2019-05-07T19:47:12.644Z,9.13
2019-05-07T19:51:12.140Z,8.57
2019-05-07T19:55:16.266Z,8.73
2019-05-07T19:59:15.660Z,8.30
2019-05-07T20:03:14.204Z,9.20
2019-05-07T20:07:26.585Z,8.27
2019-05-07T20:11:33.130Z,9.37
2019-05-07T20:15:35.364Z,9.20
2019-05-07T20:19:34.645Z,8.47
2019-05-07T20:23:35.831Z,9.50
2019-05-07T20:27:34.944Z,10.13
2019-05-07T20:31:35.007Z,9.47
2019-05-07T20:35:33.638Z,9.83
2019-05-07T20:39:33.066Z,10.13
2019-05-07T20:43:37.371Z,9.30
2019-05-07T20:47:35.898Z,8.97
2019-05-07T20:51:34.349Z,9.43
2019-05-07T20:55:34.471Z,9.47
2019-05-07T20:59:33.279Z,9.93
2019-05-07T21:03:36.260Z,9.83
2019-05-07T21:07:35.289Z,9.87
2019-05-07T21:11:43.044Z,8.73
2019-05-07T21:15:52.622Z,9.40
2019-05-07T21:19:54.230Z,8.90
2019-05-07T21:23:54.801Z,9.10
2019-05-07T21:28:09.534Z,9.60
2019-05-07T21:32:08.545Z,8.93
2019-05-07T21:36:12.179Z,8.13
2019-05-07T21:40:18.790Z,9.07
2019-05-07T21:44:19.849Z,8.83
2019-05-07T21:48:19.018Z,8.30
2019-05-07T21:52:17.537Z,8.33
2019-05-07T21:56:22.877Z,9.27
2019-05-07T22:00:25.024Z,8.67
2019-05-07T22:04:26.774Z,8.57
2019-05-07T22:08:25.290Z,8.57
2019-05-07T22:12:31.999Z,8.80
2019-05-07T22:16:28.858Z,8.37
2019-05-07T22:20:27.317Z,8.13
2019-05-07T22:24:29.008Z,8.87
2019-05-07T22:28:37.376Z,7.83
2019-05-07T22:32:37.585Z,7.80
2019-05-07T22:36:47.799Z,8.10
2019-05-07T22:40:44.230Z,7.80
2019-05-07T22:44:50.440Z,7.80
2019-05-07T22:48:53.297Z,7.57
2019-05-07T22:53:01.884Z,7.47
2019-05-07T22:57:05.355Z,6.37
2019-05-07T23:01:13.187Z,6.20
2019-05-07T23:05:12.207Z,6.10
2019-05-07T23:09:14.139Z,6.43
2019-05-07T23:13:12.972Z,6.30
2019-05-07T23:17:12.586Z,6.17
2019-05-07T23:21:13.601Z,6.57
2019-05-07T23:25:12.242Z,6.33
2019-05-07T23:29:22.211Z,6.40
2019-05-07T23:33:24.796Z,6.40
2019-05-07T23:37:26.335Z,6.00
2019-05-07T23:41:29.161Z,6.27
2019-05-07T23:45:37.678Z,6.23
2019-05-07T23:49:35.110Z,6.40
2019-05-07T23:53:37.954Z,5.50
2019-05-07T23:57:38.425Z,5.60
